»·PEaware :: N837TP KALW-8W5

N837TP :: KALW-8W5

FLIGHT INFORMATION

Flight Status: Arrived
Operator: Privately registered:
United States
More flights under this callsign
Pilot: David B. (29149)
Aircraft: Unknown
(EPIC)
More flights by this aircraft type
Origin: KALW Walla Walla Regl
United States
Destination: 8W5 Apex Airpark
United States
More flights between these airports :: More routes between these airports
Route: PSC V204 OLM
File this flight plan on PilotEdge
Remarks:
Altitude:
(Current/Filed)
16,500ft
Speed:
(Current/Filed)
280kts
Departed: 02-Aug-20 04:12 PM
Arrived: 02-Aug-20 05:05 PM
Distance/Time
Traveled:
205nm/0:53
Distance/Time
To Go:
Arrived

Flight Plot

Page will automatically refresh every two minutes.

Flight plan parsing failed; only flown route is shown


Map Options




Map Legend


Flown Route
Filed Route
Departure Airport
Arrival Airport
Navaid (VOR, NDB)
Fix

Horizontal Profiles

Position Reports

Time Latitude Longitude Heading Altitude Ground
Speed
02-Aug-20 16:07 46.094553 -118.277166 125 1203ft 0kts
02-Aug-20 16:07 46.094553 -118.277166 125 1203ft 0kts
02-Aug-20 16:09 46.095314 -118.277243 338 1201ft 16kts
02-Aug-20 16:10 46.098226 -118.276009 358 1202ft 0kts
02-Aug-20 16:10 46.099420 -118.276853 219 1199ft 0kts
02-Aug-20 16:11 46.084474 -118.297135 264 2447ft 124kts
02-Aug-20 16:13 46.111728 -118.352592 285 5076ft 181kts
02-Aug-20 16:13 46.122582 -118.413532 287 6864ft 198kts
02-Aug-20 16:14 46.139145 -118.491070 282 8960ft 208kts
02-Aug-20 16:15 46.156366 -118.572476 283 11059ft 216kts
02-Aug-20 16:16 46.173564 -118.653760 282 13103ft 215kts
02-Aug-20 16:17 46.190709 -118.735147 280 15189ft 208kts
02-Aug-20 16:18 46.207557 -118.815614 281 16519ft 231kts
02-Aug-20 16:19 46.228184 -118.914196 282 16513ft 275kts
02-Aug-20 16:20 46.250961 -119.023582 282 16509ft 290kts
02-Aug-20 16:21 46.274669 -119.135973 284 16499ft 295kts
02-Aug-20 16:22 46.300545 -119.249489 284 16484ft 297kts
02-Aug-20 16:23 46.326402 -119.363353 284 16479ft 298kts
02-Aug-20 16:24 46.352157 -119.477411 284 16478ft 298kts
02-Aug-20 16:25 46.377169 -119.588792 284 16478ft 298kts
02-Aug-20 16:26 46.403064 -119.704773 284 16484ft 314kts
02-Aug-20 16:27 46.430294 -119.827347 284 16494ft 322kts
02-Aug-20 16:28 46.458472 -119.951165 284 16521ft 324kts
02-Aug-20 16:29 46.486936 -120.075649 284 16535ft 325kts
02-Aug-20 16:30 46.515211 -120.200043 284 16535ft 325kts
02-Aug-20 16:31 46.543440 -120.324956 284 16535ft 325kts
02-Aug-20 16:32 46.569602 -120.450347 270 16523ft 320kts
02-Aug-20 16:33 46.571876 -120.579480 268 16534ft 319kts
02-Aug-20 16:34 46.573222 -120.708990 267 16537ft 319kts
02-Aug-20 16:35 46.574419 -120.838710 267 16537ft 320kts
02-Aug-20 16:36 46.575465 -120.968162 267 16536ft 320kts
02-Aug-20 16:37 46.576334 -121.093885 268 16536ft 319kts
02-Aug-20 16:38 46.577092 -121.223132 268 16535ft 319kts
02-Aug-20 16:39 46.577703 -121.351941 268 16535ft 319kts
02-Aug-20 16:40 46.578172 -121.481445 268 16547ft 318kts
02-Aug-20 16:41 46.578494 -121.610923 268 16450ft 317kts
02-Aug-20 16:42 46.606358 -121.730480 291 16501ft 321kts
02-Aug-20 16:43 46.643810 -121.848196 291 16500ft 320kts
02-Aug-20 16:44 46.681165 -121.966018 291 16500ft 320kts
02-Aug-20 16:45 46.718525 -122.084415 291 16499ft 320kts
02-Aug-20 16:46 46.755666 -122.202684 291 16499ft 320kts
02-Aug-20 16:47 46.792653 -122.321025 291 16499ft 320kts
02-Aug-20 16:48 46.829576 -122.439610 291 16498ft 320kts
02-Aug-20 16:49 46.866283 -122.557745 291 16494ft 320kts
02-Aug-20 16:50 46.901344 -122.671524 290 15589ft 297kts
02-Aug-20 16:51 46.934191 -122.778736 290 14318ft 281kts
02-Aug-20 16:52 46.969274 -122.879504 319 13008ft 288kts
02-Aug-20 16:53 47.050370 -122.881124 8 11666ft 302kts
02-Aug-20 16:54 47.125692 -122.861340 8 10429ft 302kts
02-Aug-20 16:55 47.210511 -122.838980 8 9048ft 300kts
02-Aug-20 16:56 47.291999 -122.817427 8 7726ft 292kts
02-Aug-20 16:57 47.370330 -122.796655 8 6457ft 284kts
02-Aug-20 16:58 47.446759 -122.776322 8 5220ft 280kts
02-Aug-20 16:59 47.522050 -122.754037 9 4455ft 262kts
02-Aug-20 17:00 47.589837 -122.733669 9 2923ft 226kts
02-Aug-20 17:01 47.642276 -122.713445 17 2150ft 127kts
02-Aug-20 17:02 47.672898 -122.699790 4 1582ft 107kts
02-Aug-20 17:03 47.671303 -122.727286 244 767ft 88kts
02-Aug-20 17:04 47.656882 -122.732661 351 527ft 4kts
02-Aug-20 17:05 47.656891 -122.732663 350 527ft 0kts

Navigation Log

Ident Type
Flight plan parsing failed, navigation log unavailable